createdAt,value
2023-04-05T00:02:14.045Z,99167.56
2023-04-05T00:04:50.215Z,99167.31
2023-04-05T00:07:17.456Z,99162.19
2023-04-05T00:09:43.971Z,99157.25
2023-04-05T00:12:10.631Z,99154.00
2023-04-05T00:14:37.099Z,99153.41
2023-04-05T00:17:04.217Z,99151.59
2023-04-05T00:19:33.699Z,99148.69
2023-04-05T00:22:00.775Z,99144.00
2023-04-05T00:24:29.424Z,99139.41
2023-04-05T00:26:56.727Z,99141.97
2023-04-05T00:29:23.427Z,99131.13
2023-04-05T00:31:50.247Z,99134.16
2023-04-05T00:34:16.775Z,99133.75
2023-04-05T00:36:43.329Z,99133.91
2023-04-05T00:39:09.794Z,99138.25
2023-04-05T00:41:36.662Z,99131.34
2023-04-05T00:44:03.869Z,99136.50
2023-04-05T00:46:34.382Z,99129.56
2023-04-05T00:49:00.896Z,99129.56
2023-04-05T00:51:27.659Z,99129.78
2023-04-05T00:53:55.056Z,99128.47
2023-04-05T00:56:22.906Z,99133.03
2023-04-05T00:58:53.152Z,99119.44
2023-04-05T01:01:22.593Z,99125.69
2023-04-05T01:03:55.375Z,99127.50
2023-04-05T01:06:48.103Z,99127.34
2023-04-05T01:09:45.722Z,99122.09
2023-04-05T01:12:17.884Z,99120.00
2023-04-05T01:14:51.868Z,99119.88
2023-04-05T01:17:28.004Z,99115.41
2023-04-05T01:20:03.842Z,99120.72
2023-04-05T01:22:37.908Z,99112.03
2023-04-05T01:25:45.087Z,99116.06
2023-04-05T01:28:58.878Z,99113.44
2023-04-05T01:31:46.181Z,99119.56
2023-04-05T01:34:31.112Z,99106.94
2023-04-05T01:37:07.402Z,99110.28
2023-04-05T01:39:36.953Z,99107.63
2023-04-05T01:42:04.298Z,99117.50
2023-04-05T01:44:31.280Z,99103.22
2023-04-05T01:46:57.815Z,99117.97
2023-04-05T01:49:24.769Z,99109.88
2023-04-05T01:51:51.305Z,99105.44
2023-04-05T01:54:17.739Z,99099.41
2023-04-05T01:56:44.600Z,99097.69
2023-04-05T01:59:11.157Z,99098.25
2023-04-05T02:01:37.662Z,99098.28
2023-04-05T02:04:04.195Z,99096.38
2023-04-05T02:06:31.977Z,99093.69
2023-04-05T02:08:58.433Z,99093.53
2023-04-05T02:11:24.977Z,99102.31
2023-04-05T02:13:51.488Z,99100.88
2023-04-05T02:16:18.398Z,99101.34
2023-04-05T02:18:50.659Z,99094.47
2023-04-05T02:21:17.151Z,99097.84
2023-04-05T02:23:44.022Z,99092.59
2023-04-05T02:26:10.732Z,99096.00
2023-04-05T02:28:37.244Z,99098.88
2023-04-05T02:31:12.515Z,99091.16
2023-04-05T02:33:40.221Z,99095.41
2023-04-05T02:36:09.462Z,99097.28
2023-04-05T02:38:36.175Z,99089.47
2023-04-05T02:41:03.185Z,99091.00
2023-04-05T02:43:29.966Z,99088.31
2023-04-05T02:45:56.445Z,99086.69
2023-04-05T02:48:22.968Z,99080.50
2023-04-05T02:50:51.433Z,99086.72
2023-04-05T02:53:18.852Z,99084.88
2023-04-05T02:55:56.783Z,99080.63
2023-04-05T02:58:28.382Z,99077.16
2023-04-05T03:00:56.070Z,99084.34
2023-04-05T03:03:23.482Z,99086.22
2023-04-05T03:06:10.757Z,99081.31
2023-04-05T03:08:39.354Z,99081.13
2023-04-05T03:11:06.773Z,99082.16
2023-04-05T03:13:37.021Z,99075.28
2023-04-05T03:16:13.778Z,99076.94
2023-04-05T03:18:40.133Z,99078.28
2023-04-05T03:21:11.982Z,99076.13
2023-04-05T03:23:38.548Z,99072.84
2023-04-05T03:26:05.188Z,99068.66
2023-04-05T03:28:34.583Z,99070.28
2023-04-05T03:31:05.851Z,99080.56
2023-04-05T03:33:37.816Z,99082.97
2023-04-05T03:36:06.164Z,99074.50
2023-04-05T03:38:32.660Z,99077.91
2023-04-05T03:40:59.190Z,99071.09
2023-04-05T03:43:25.671Z,99068.50
2023-04-05T03:45:52.640Z,99065.16
2023-04-05T03:48:21.898Z,99057.38
2023-04-05T03:50:48.480Z,99064.31
2023-04-05T03:53:19.983Z,99058.50
2023-04-05T03:55:50.229Z,99075.81
2023-04-05T03:58:17.315Z,99056.84
2023-04-05T04:00:43.866Z,99065.69
2023-04-05T04:03:10.565Z,99065.69
2023-04-05T04:05:39.327Z,99073.53
2023-04-05T04:08:06.448Z,99070.25
2023-04-05T04:10:34.396Z,99070.31
2023-04-05T04:13:00.844Z,99070.31
2023-04-05T04:15:27.550Z,99070.31
2023-04-05T04:17:54.157Z,99063.66
2023-04-05T04:20:21.234Z,99073.22
2023-04-05T04:22:49.864Z,99071.41
2023-04-05T04:25:18.645Z,99071.19
2023-04-05T04:27:46.488Z,99067.59
2023-04-05T04:30:18.601Z,99066.88
2023-04-05T04:33:06.634Z,99068.66
2023-04-05T04:35:40.874Z,99071.59
2023-04-05T04:38:08.390Z,99073.31
2023-04-05T04:40:41.075Z,99070.81
2023-04-05T04:43:17.049Z,99063.78
2023-04-05T04:45:47.190Z,99062.25
2023-04-05T04:48:16.411Z,99064.13
2023-04-05T04:50:44.143Z,99061.59
2023-04-05T04:53:11.905Z,99059.75
2023-04-05T04:55:44.497Z,99064.72
2023-04-05T04:58:19.553Z,99062.03
2023-04-05T05:00:46.790Z,99065.69
2023-04-05T05:03:14.041Z,99068.25
2023-04-05T05:05:47.207Z,99061.53
2023-04-05T05:08:14.556Z,99069.22
2023-04-05T05:10:41.531Z,99071.78
2023-04-05T05:13:08.497Z,99069.28
2023-04-05T05:15:35.054Z,99070.16
2023-04-05T05:18:01.605Z,99069.97
2023-04-05T05:20:28.476Z,99072.41
2023-04-05T05:22:56.085Z,99072.47
2023-04-05T05:25:22.873Z,99070.94
2023-04-05T05:27:53.647Z,99078.72
2023-04-05T05:30:20.981Z,99065.00
2023-04-05T05:32:55.872Z,99068.44
2023-04-05T05:35:22.398Z,99075.28
2023-04-05T05:37:48.886Z,99070.81
2023-04-05T05:40:16.218Z,99075.13
2023-04-05T05:42:42.713Z,99062.00
2023-04-05T05:45:10.192Z,99054.94
2023-04-05T05:47:36.979Z,99053.28
2023-04-05T05:50:04.224Z,99062.00
2023-04-05T05:52:31.444Z,99068.03
2023-04-05T05:54:57.934Z,99053.28
2023-04-05T05:57:24.432Z,99057.44
2023-04-05T05:59:50.960Z,99062.38
2023-04-05T06:02:17.476Z,99069.13
2023-04-05T06:04:44.091Z,99079.34
2023-04-05T06:07:11.027Z,99065.50
2023-04-05T06:09:37.934Z,99069.97
2023-04-05T06:12:04.506Z,99073.44
2023-04-05T06:14:31.225Z,99072.44
2023-04-05T06:16:59.287Z,99069.84
2023-04-05T06:19:27.013Z,99062.91
2023-04-05T06:21:54.915Z,99064.53
2023-04-05T06:24:21.461Z,99062.88
2023-04-05T06:26:47.894Z,99062.91
2023-04-05T06:29:14.426Z,99068.06
2023-04-05T06:31:42.552Z,99066.28
2023-04-05T06:34:09.243Z,99073.13
2023-04-05T06:36:35.872Z,99066.13
2023-04-05T06:39:02.299Z,99066.00
2023-04-05T06:41:28.781Z,99065.84
2023-04-05T06:43:56.301Z,99063.75
2023-04-05T06:46:23.338Z,99063.59
2023-04-05T06:48:50.574Z,99066.34
2023-04-05T06:51:17.266Z,99054.97
2023-04-05T06:53:43.924Z,99055.66
2023-04-05T06:56:10.873Z,99055.38
2023-04-05T06:58:37.408Z,99059.31
2023-04-05T07:01:17.851Z,99061.69
2023-04-05T07:03:47.459Z,99058.84
2023-04-05T07:06:14.181Z,99056.06
2023-04-05T07:08:40.894Z,99053.25
2023-04-05T07:11:07.399Z,99047.84
2023-04-05T07:13:34.050Z,99051.03
2023-04-05T07:16:03.182Z,99052.53
2023-04-05T07:18:30.203Z,99048.91
2023-04-05T07:21:03.621Z,99042.56
2023-04-05T07:23:30.844Z,99041.19
2023-04-05T07:26:04.957Z,99039.44
2023-04-05T07:28:36.113Z,99040.03
2023-04-05T07:31:04.544Z,99029.34
2023-04-05T07:33:31.505Z,99034.16
2023-04-05T07:35:58.440Z,99039.06
2023-04-05T07:38:26.996Z,99037.13
2023-04-05T07:40:53.546Z,99032.72
2023-04-05T07:43:20.123Z,99030.69
2023-04-05T07:45:46.789Z,99032.94
2023-04-05T07:48:13.264Z,99029.94
2023-04-05T07:50:41.010Z,99025.13
2023-04-05T07:53:08.208Z,99024.75
2023-04-05T07:55:38.570Z,99028.94
2023-04-05T07:58:05.235Z,99025.94
2023-04-05T08:00:31.917Z,99026.56
2023-04-05T08:03:01.845Z,99035.78
2023-04-05T08:05:29.238Z,99027.69
2023-04-05T08:07:57.993Z,99034.41
2023-04-05T08:10:25.650Z,99022.50
2023-04-05T08:12:52.272Z,99019.59
2023-04-05T08:15:18.822Z,99021.13
2023-04-05T08:17:45.360Z,99023.56
2023-04-05T08:20:12.597Z,99018.81
2023-04-05T08:22:42.175Z,99021.69
2023-04-05T08:25:09.266Z,99015.41
2023-04-05T08:27:35.766Z,99011.94
2023-04-05T08:30:02.504Z,99015.13
2023-04-05T08:32:32.403Z,99014.66
2023-04-05T08:35:04.784Z,99013.56
2023-04-05T08:37:37.130Z,99012.25
2023-04-05T08:40:04.878Z,99006.94
2023-04-05T08:42:51.579Z,99003.31
2023-04-05T08:45:20.720Z,99006.38
2023-04-05T08:47:52.229Z,98999.19
2023-04-05T08:50:19.012Z,98998.44
2023-04-05T08:52:50.216Z,99002.75
2023-04-05T08:55:17.252Z,99006.81
2023-04-05T08:57:51.178Z,98994.50
2023-04-05T09:00:19.311Z,98998.47
2023-04-05T09:02:53.195Z,98996.75
2023-04-05T09:05:22.425Z,99003.59
2023-04-05T09:07:50.346Z,99004.09
2023-04-05T09:10:20.214Z,98991.84
2023-04-05T09:12:47.773Z,98997.88
2023-04-05T09:15:16.468Z,98983.66
2023-04-05T09:17:44.025Z,98986.16
2023-04-05T09:20:10.642Z,98986.56
2023-04-05T09:22:47.188Z,98980.56
2023-04-05T09:25:31.903Z,98983.38
2023-04-05T09:27:59.876Z,98975.88
2023-04-05T09:30:30.110Z,98982.59
2023-04-05T09:32:57.533Z,98981.22
2023-04-05T09:35:31.005Z,98980.47
2023-04-05T09:38:09.730Z,98970.72
2023-04-05T09:40:45.332Z,98981.56
2023-04-05T09:43:14.785Z,98982.63
2023-04-05T09:45:42.992Z,98979.50
2023-04-05T09:48:10.151Z,98976.97
2023-04-05T09:50:36.897Z,98979.25
2023-04-05T09:53:16.743Z,98974.41
2023-04-05T09:55:43.900Z,98975.53
2023-04-05T09:58:18.862Z,98971.81
2023-04-05T10:00:59.948Z,98965.31
2023-04-05T10:03:48.171Z,98957.88
2023-04-05T10:06:17.116Z,98959.09
2023-04-05T10:08:46.910Z,98963.81
2023-04-05T10:11:18.391Z,98965.56
2023-04-05T10:13:47.940Z,98952.84
2023-04-05T10:16:21.679Z,98956.34
2023-04-05T10:18:52.374Z,98948.94
2023-04-05T10:21:26.147Z,98948.59
2023-04-05T10:24:09.143Z,98946.63
2023-04-05T10:27:20.370Z,98941.53
2023-04-05T10:30:05.725Z,98937.13
2023-04-05T10:32:52.952Z,98939.63
2023-04-05T10:35:50.205Z,98940.13
2023-04-05T10:38:29.001Z,98940.38
2023-04-05T10:41:12.740Z,98943.25
2023-04-05T10:43:41.184Z,98936.22
2023-04-05T10:46:08.763Z,98935.22
2023-04-05T10:48:53.571Z,98939.66
2023-04-05T10:51:24.168Z,98935.03
2023-04-05T10:53:52.313Z,98925.09
2023-04-05T10:56:22.027Z,98924.56
2023-04-05T10:58:51.522Z,98922.94
2023-04-05T11:01:20.623Z,98922.47
2023-04-05T11:03:54.906Z,98910.66
2023-04-05T11:06:32.529Z,98918.81
2023-04-05T11:09:10.720Z,98914.75
2023-04-05T11:11:43.929Z,98907.88
2023-04-05T11:14:36.762Z,98904.38
2023-04-05T11:17:04.441Z,98912.56
2023-04-05T11:19:42.889Z,98911.56
2023-04-05T11:22:10.346Z,98904.69
2023-04-05T11:24:58.234Z,98898.63
2023-04-05T11:27:28.055Z,98899.31
2023-04-05T11:29:56.482Z,98904.78
2023-04-05T11:32:24.056Z,98906.38
2023-04-05T11:35:05.482Z,98899.13
2023-04-05T11:37:55.225Z,98896.91
2023-04-05T11:40:35.671Z,98890.00
2023-04-05T11:43:10.683Z,98891.31
2023-04-05T11:45:39.636Z,98882.59
2023-04-05T11:48:10.933Z,98892.50
2023-04-05T11:50:41.582Z,98876.16
2023-04-05T11:53:16.505Z,98873.88
2023-04-05T11:55:48.003Z,98875.13
2023-04-05T11:58:25.756Z,98877.84
2023-04-05T12:01:04.904Z,98873.78
2023-04-05T12:03:31.825Z,98871.91
2023-04-05T12:06:04.436Z,98873.28
2023-04-05T12:08:49.807Z,98866.34
2023-04-05T12:11:24.499Z,98858.25
2023-04-05T12:13:59.357Z,98866.06
2023-04-05T12:16:26.502Z,98868.50
2023-04-05T12:18:58.583Z,98857.13
2023-04-05T12:21:26.505Z,98856.78
2023-04-05T12:23:54.301Z,98848.56
2023-04-05T12:26:22.242Z,98849.88
2023-04-05T12:28:57.124Z,98848.03
2023-04-05T12:31:46.306Z,98845.34
2023-04-05T12:34:14.874Z,98854.16
2023-04-05T12:36:46.397Z,98851.34
2023-04-05T12:39:13.011Z,98846.47
2023-04-05T12:41:39.807Z,98843.44
2023-04-05T12:44:15.956Z,98842.13
2023-04-05T12:46:47.451Z,98841.28
2023-04-05T12:49:18.930Z,98831.81
2023-04-05T12:51:47.356Z,98834.59
2023-04-05T12:54:24.106Z,98829.63
2023-04-05T12:56:52.963Z,98833.88
2023-04-05T12:59:19.801Z,98817.53
2023-04-05T13:01:46.805Z,98816.31
2023-04-05T13:04:16.617Z,98813.22
2023-04-05T13:06:47.064Z,98809.53
2023-04-05T13:09:13.772Z,98803.53
2023-04-05T13:11:40.373Z,98813.09
2023-04-05T13:14:07.443Z,98809.28
2023-04-05T13:16:34.055Z,98803.41
2023-04-05T13:19:00.687Z,98802.66
2023-04-05T13:21:27.256Z,98801.31
2023-04-05T13:23:53.701Z,98797.16
2023-04-05T13:26:20.974Z,98798.44
2023-04-05T13:28:47.459Z,98797.78
2023-04-05T13:31:15.833Z,98796.53
2023-04-05T13:33:43.375Z,98791.69
2023-04-05T13:36:12.237Z,98794.47
2023-04-05T13:38:38.911Z,98794.63
2023-04-05T13:41:05.724Z,98782.66
2023-04-05T13:43:32.252Z,98790.38
2023-04-05T14:19:02.914Z,98751.25
2023-04-05T14:21:29.515Z,98747.91
2023-04-05T14:23:57.783Z,98745.63
2023-04-05T14:26:28.332Z,98740.84
2023-04-05T14:28:55.048Z,98739.34
2023-04-05T14:31:25.065Z,98736.47
2023-04-05T14:33:52.371Z,98735.34
2023-04-05T14:36:19.042Z,98730.69
2023-04-05T14:38:45.728Z,98724.50
2023-04-05T14:41:12.430Z,98724.16
2023-04-05T14:43:39.202Z,98723.97
2023-04-05T14:46:06.224Z,98727.13
2023-04-05T14:48:33.974Z,98718.66
2023-04-05T14:51:00.515Z,98714.03
2023-04-05T14:53:27.216Z,98722.06
2023-04-05T14:55:53.826Z,98717.84
2023-04-05T14:58:20.578Z,98722.78
2023-04-05T15:00:49.936Z,98713.41
2023-04-05T15:03:19.537Z,98717.63
2023-04-05T15:05:47.627Z,98715.28
2023-04-05T15:08:15.503Z,98711.28
2023-04-05T15:10:43.154Z,98705.50
2023-04-05T15:13:10.488Z,98708.13
2023-04-05T15:15:37.714Z,98715.72
2023-04-05T15:18:05.627Z,98711.63
2023-04-05T15:20:32.932Z,98707.72
2023-04-05T15:23:00.363Z,98703.72
2023-04-05T15:25:26.922Z,98708.00
2023-04-05T15:27:54.721Z,98703.47
2023-04-05T15:30:22.007Z,98695.09
2023-04-05T15:32:48.597Z,98698.31
2023-04-05T15:35:15.452Z,98695.56
2023-04-05T15:37:42.112Z,98691.09
2023-04-05T15:40:09.568Z,98697.03
2023-04-05T15:42:36.245Z,98692.03
2023-04-05T15:45:03.008Z,98689.19
2023-04-05T15:47:29.606Z,98681.69
2023-04-05T15:49:56.232Z,98684.78
2023-04-05T15:52:22.741Z,98681.56
2023-04-05T15:54:49.244Z,98684.75
2023-04-05T15:57:15.960Z,98678.63
2023-04-05T15:59:42.611Z,98677.25
2023-04-05T16:02:09.715Z,98683.78
2023-04-05T16:04:36.400Z,98680.94
2023-04-05T16:07:02.992Z,98671.56
2023-04-05T16:09:29.979Z,98672.22
2023-04-05T16:11:56.852Z,98666.88
2023-04-05T16:14:23.468Z,98666.00
2023-04-05T16:16:54.118Z,98662.47
2023-04-05T16:19:21.804Z,98662.41
2023-04-05T16:21:49.433Z,98663.84
2023-04-05T16:24:16.140Z,98668.16
2023-04-05T16:26:42.794Z,98656.66
2023-04-05T16:29:09.377Z,98659.78
2023-04-05T16:31:36.596Z,98655.69
2023-04-05T16:34:03.473Z,98652.81
2023-04-05T16:36:30.077Z,98655.41
2023-04-05T16:38:56.626Z,98654.69
2023-04-05T16:41:23.161Z,98651.06
2023-04-05T16:43:51.062Z,98659.00
2023-04-05T16:46:18.476Z,98657.22
2023-04-05T16:48:45.420Z,98650.72
2023-04-05T16:51:12.848Z,98661.88
2023-04-05T16:53:39.481Z,98662.28
2023-04-05T16:56:06.268Z,98662.94
2023-04-05T16:58:32.836Z,98663.75
2023-04-05T17:01:00.307Z,98663.06
2023-04-05T17:03:27.315Z,98659.69
2023-04-05T17:05:53.994Z,98663.91
2023-04-05T17:08:20.590Z,98664.22
2023-04-05T17:10:47.422Z,98665.06
2023-04-05T17:13:14.910Z,98663.84
2023-04-05T17:15:41.878Z,98665.50
2023-04-05T17:18:08.672Z,98664.94
2023-04-05T17:20:35.327Z,98655.75
2023-04-05T17:23:01.896Z,98661.91
2023-04-05T17:25:28.468Z,98668.78
2023-04-05T17:27:55.168Z,98662.25
2023-04-05T17:30:21.725Z,98666.38
2023-04-05T17:32:48.325Z,98654.06
2023-04-05T17:35:15.389Z,98661.97
2023-04-05T17:37:41.923Z,98662.94
2023-04-05T17:40:09.111Z,98662.72
2023-04-05T17:42:35.767Z,98672.66
2023-04-05T17:45:02.628Z,98668.84
2023-04-05T17:47:29.260Z,98667.34
2023-04-05T17:49:55.896Z,98668.09
2023-04-05T17:52:22.759Z,98670.59
2023-04-05T17:54:49.789Z,98664.75
2023-04-05T17:57:16.535Z,98669.59
2023-04-05T17:59:43.406Z,98671.44
2023-04-05T18:02:13.414Z,98672.09
2023-04-05T18:04:41.070Z,98673.13
2023-04-05T18:07:08.300Z,98664.28
2023-04-05T18:09:37.421Z,98672.75
2023-04-05T18:12:05.413Z,98668.50
2023-04-05T18:14:32.168Z,98673.94
2023-04-05T18:16:59.312Z,98674.50
2023-04-05T18:19:25.960Z,98679.94
2023-04-05T18:21:52.544Z,98689.09
2023-04-05T18:24:19.654Z,98685.13
2023-04-05T18:26:46.701Z,98683.47
2023-04-05T18:29:13.330Z,98685.19
2023-04-05T18:31:39.984Z,98685.50
2023-04-05T18:34:06.755Z,98697.41
2023-04-05T18:36:33.474Z,98698.69
2023-04-05T18:39:03.618Z,98694.09
2023-04-05T18:41:30.547Z,98690.97
2023-04-05T18:43:59.181Z,98698.22
2023-04-05T18:46:26.431Z,98700.63
2023-04-05T18:48:56.276Z,98703.59
2023-04-05T18:51:24.549Z,98701.50
2023-04-05T18:53:51.362Z,98699.75
2023-04-05T18:56:18.190Z,98708.38
2023-04-05T18:58:45.660Z,98706.00
2023-04-05T19:01:16.928Z,98705.16
2023-04-05T19:03:45.054Z,98714.53
2023-04-05T19:06:12.672Z,98712.84
2023-04-05T19:08:39.850Z,98718.19
2023-04-05T19:11:07.503Z,98721.88
2023-04-05T19:13:34.150Z,98716.47
2023-04-05T19:18:27.962Z,98719.09
2023-04-05T19:20:57.330Z,98725.88
2023-04-05T19:23:28.759Z,98723.75
2023-04-05T19:25:57.307Z,98729.78
2023-04-05T19:28:25.955Z,98733.31
2023-04-05T19:30:53.378Z,98733.78
2023-04-05T19:33:21.712Z,98739.63
2023-04-05T19:35:48.810Z,98738.78
2023-04-05T19:38:15.791Z,98740.47
2023-04-05T19:40:43.004Z,98745.53
2023-04-05T19:43:10.228Z,98734.53
2023-04-05T19:45:37.221Z,98734.44
2023-04-05T19:48:46.946Z,98741.44
2023-04-05T19:51:17.914Z,98738.03
2023-04-05T19:53:53.646Z,98733.88
2023-04-05T19:56:31.105Z,98738.72
2023-04-05T19:59:09.444Z,98733.66
2023-04-05T20:01:41.486Z,98741.59
2023-04-05T20:04:20.593Z,98738.88
2023-04-05T20:06:53.805Z,98740.13
2023-04-05T20:09:26.732Z,98734.63
2023-04-05T20:12:06.239Z,98735.13
2023-04-05T20:14:45.883Z,98733.84
2023-04-05T20:17:14.062Z,98734.25
2023-04-05T20:19:57.673Z,98745.53
2023-04-05T20:22:26.895Z,98736.06
2023-04-05T20:24:53.562Z,98732.50
2023-04-05T20:27:20.231Z,98737.06
2023-04-05T20:29:46.960Z,98735.66
2023-04-05T20:32:14.187Z,98735.97
2023-04-05T20:34:43.794Z,98744.06
2023-04-05T20:37:11.845Z,98742.13
2023-04-05T20:39:38.509Z,98741.91
2023-04-05T20:42:05.332Z,98731.81
2023-04-05T20:44:32.035Z,98728.66
2023-04-05T20:46:58.897Z,98732.63
2023-04-05T20:49:26.148Z,98729.84
2023-04-05T20:51:55.770Z,98730.09
2023-04-05T20:54:22.682Z,98728.34
2023-04-05T20:56:49.477Z,98728.72
2023-04-05T20:59:16.631Z,98727.47
2023-04-05T21:01:43.458Z,98729.59
2023-04-05T21:04:10.624Z,98729.78
2023-04-05T21:06:37.625Z,98728.44
2023-04-05T21:09:04.797Z,98725.75
2023-04-05T21:11:31.508Z,98727.59
2023-04-05T21:13:58.212Z,98725.25
2023-04-05T21:16:24.993Z,98722.41
2023-04-05T21:18:51.794Z,98728.88
2023-04-05T21:21:18.502Z,98726.53
2023-04-05T21:23:45.451Z,98726.84
2023-04-05T21:26:12.165Z,98727.69
2023-04-05T21:28:38.788Z,98726.34
2023-04-05T21:31:05.666Z,98726.53
2023-04-05T21:33:32.365Z,98729.13
2023-04-05T21:35:59.112Z,98724.41
2023-04-05T21:38:25.850Z,98727.38
2023-04-05T21:40:52.495Z,98725.91
2023-04-05T21:43:20.865Z,98731.63
2023-04-05T21:45:47.534Z,98733.47
2023-04-05T21:48:14.278Z,98724.66
2023-04-05T21:50:41.195Z,98729.13
2023-04-05T21:53:09.637Z,98731.88
2023-04-05T21:55:36.370Z,98730.28
2023-04-05T21:58:03.033Z,98733.25
2023-04-05T22:00:29.723Z,98734.38
2023-04-05T22:02:56.493Z,98730.13
2023-04-05T22:05:36.318Z,98726.78
2023-04-05T22:08:05.611Z,98731.91
2023-04-05T22:10:32.669Z,98730.16
2023-04-05T22:12:59.321Z,98733.19
2023-04-05T22:15:25.980Z,98728.03
2023-04-05T22:17:52.723Z,98733.81
2023-04-05T22:20:19.492Z,98731.00
2023-04-05T22:22:49.090Z,98726.03
2023-04-05T22:25:23.661Z,98728.84
2023-04-05T22:27:50.353Z,98725.56
2023-04-05T22:30:17.065Z,98735.34
2023-04-05T22:32:44.298Z,98730.22
2023-04-05T22:35:16.468Z,98726.88
2023-04-05T22:37:43.285Z,98730.59
2023-04-05T22:40:10.930Z,98725.84
2023-04-05T22:42:40.076Z,98724.31
2023-04-05T22:45:07.771Z,98719.06
2023-04-05T22:47:42.318Z,98727.25
2023-04-05T22:50:09.445Z,98720.13
2023-04-05T22:52:36.326Z,98728.06
2023-04-05T22:55:04.406Z,98728.44
2023-04-05T22:57:35.546Z,98720.88
2023-04-05T23:00:02.538Z,98721.94
2023-04-05T23:02:32.118Z,98717.53
2023-04-05T23:04:59.266Z,98717.59
2023-04-05T23:07:26.242Z,98710.81
2023-04-05T23:09:52.862Z,98713.41
2023-04-05T23:12:19.524Z,98714.50
2023-04-05T23:14:46.461Z,98713.72
2023-04-05T23:17:13.161Z,98719.69
2023-04-05T23:19:39.816Z,98706.78
2023-04-05T23:22:16.511Z,98710.22
2023-04-05T23:24:43.116Z,98705.28
2023-04-05T23:27:09.775Z,98709.72
2023-04-05T23:29:36.409Z,98713.75
2023-04-05T23:32:03.140Z,98714.28
2023-04-05T23:34:29.741Z,98714.34
2023-04-05T23:36:56.430Z,98711.16
2023-04-05T23:39:23.144Z,98707.91
2023-04-05T23:41:49.784Z,98703.78
2023-04-05T23:44:16.400Z,98698.06
2023-04-05T23:46:43.012Z,98699.03
2023-04-05T23:49:09.821Z,98694.50
2023-04-05T23:51:36.541Z,98691.22
2023-04-05T23:54:13.927Z,98701.66
2023-04-05T23:56:51.903Z,98694.66
2023-04-05T23:59:18.610Z,98692.09
